Time;durP1;ratioP1;P1;durP2;ratioP2;P2;SDS_P1;SDS_P2;PMS_P1;PMS_P2;Temp;Humidity;BMP_temperature;BMP_pressure;BME280_temperature;BME280_humidity;BME280_pressure;Samples;Min_cycle;Max_cycle;Signal;HPM_P1;HPM_P2
2021/10/29 00:01:15;;;;;;;17.50;10.13;;;14.10;85.10;;;;;;5094854;28;20024;-77
2021/10/29 00:03:41;;;;;;;18.23;10.63;;;14.00;85.00;;;;;;5095684;28;20084;-77
2021/10/29 00:06:10;;;;;;;22.30;10.45;;;14.10;85.10;;;;;;5100805;28;20039;-77
2021/10/29 00:08:35;;;;;;;19.58;10.50;;;14.00;85.10;;;;;;5099832;28;20396;-76
2021/10/29 00:11:01;;;;;;;18.15;10.02;;;14.00;85.20;;;;;;5096266;28;20111;-77
2021/10/29 00:13:27;;;;;;;17.95;10.23;;;13.90;85.20;;;;;;5094781;28;20028;-77
2021/10/29 00:15:53;;;;;;;16.98;10.13;;;13.90;85.30;;;;;;5095751;28;20084;-77
2021/10/29 00:18:18;;;;;;;17.42;9.80;;;13.90;85.40;;;;;;5095991;28;20032;-77
2021/10/29 00:20:44;;;;;;;17.98;9.25;;;13.80;85.40;;;;;;5095446;28;20089;-77
2021/10/29 00:23:10;;;;;;;19.60;10.52;;;13.80;85.70;;;;;;5095976;28;20028;-76
2021/10/29 00:25:35;;;;;;;19.90;10.10;;;13.80;85.70;;;;;;5106097;27;20036;-76
2021/10/29 00:28:02;;;;;;;17.10;8.90;;;13.80;86.00;;;;;;5095460;28;20467;-77
2021/10/29 00:30:27;;;;;;;17.00;9.80;;;13.80;86.30;;;;;;5095979;28;20494;-77
2021/10/29 00:32:53;;;;;;;18.88;10.00;;;13.80;86.30;;;;;;5107544;28;20466;-76
2021/10/29 00:35:19;;;;;;;18.10;9.00;;;13.70;86.40;;;;;;5095266;28;20422;-77
2021/10/29 00:37:44;;;;;;;19.42;11.43;;;13.70;86.40;;;;;;5094151;28;20490;-77
2021/10/29 00:40:12;;;;;;;17.80;10.82;;;13.70;86.50;;;;;;5095554;28;20024;-77
2021/10/29 00:42:41;;;;;;;18.52;10.80;;;13.70;86.30;;;;;;5103810;28;20028;-77
2021/10/29 00:45:09;;;;;;;22.15;11.38;;;13.60;86.30;;;;;;5107598;28;20500;-77
2021/10/29 00:47:35;;;;;;;20.48;11.55;;;13.70;86.30;;;;;;5102395;27;20497;-77
2021/10/29 00:50:01;;;;;;;35.67;13.68;;;13.70;86.10;;;;;;5109392;28;20114;-77
2021/10/29 00:52:26;;;;;;;20.77;10.27;;;13.60;86.00;;;;;;5100021;28;20458;-77
2021/10/29 00:54:52;;;;;;;19.63;10.07;;;13.60;86.10;;;;;;5110945;28;20069;-76
2021/10/29 00:57:18;;;;;;;19.88;11.25;;;13.60;86.10;;;;;;5104305;28;20505;-77
2021/10/29 00:59:45;;;;;;;21.25;10.25;;;13.60;86.10;;;;;;5095585;28;20498;-77
2021/10/29 01:02:11;;;;;;;18.20;10.63;;;13.60;86.10;;;;;;5101573;28;20478;-77
2021/10/29 01:04:38;;;;;;;19.25;10.73;;;13.50;86.00;;;;;;5103505;28;20032;-77
2021/10/29 01:07:04;;;;;;;21.63;11.80;;;13.50;85.90;;;;;;5106755;28;20034;-77
2021/10/29 01:09:29;;;;;;;21.77;10.85;;;13.50;85.90;;;;;;5113169;28;20027;-78
2021/10/29 01:11:56;;;;;;;21.88;11.57;;;13.50;86.00;;;;;;5111978;28;20079;-77
2021/10/29 01:14:21;;;;;;;19.42;10.50;;;13.50;86.00;;;;;;5109402;28;20027;-77
2021/10/29 01:16:50;;;;;;;20.48;11.30;;;13.40;85.90;;;;;;5102762;28;20490;-77
2021/10/29 01:19:15;;;;;;;19.52;11.20;;;13.40;85.90;;;;;;5091413;28;20063;-76
2021/10/29 01:21:41;;;;;;;19.25;11.93;;;13.40;86.10;;;;;;5092805;28;20100;-77
2021/10/29 01:24:07;;;;;;;21.80;12.02;;;13.40;86.10;;;;;;5093208;28;20020;-76
2021/10/29 01:26:33;;;;;;;24.42;12.38;;;13.30;86.10;;;;;;5092477;28;20039;-76
2021/10/29 01:28:59;;;;;;;16.83;9.63;;;13.40;86.20;;;;;;5103383;28;20122;-78
2021/10/29 01:31:25;;;;;;;17.60;9.75;;;13.30;86.30;;;;;;5107436;28;20114;-78
2021/10/29 01:33:50;;;;;;;22.33;11.75;;;13.30;86.40;;;;;;5108419;28;20019;-77
2021/10/29 01:36:16;;;;;;;20.27;10.73;;;13.30;86.50;;;;;;5109134;28;20055;-78
2021/10/29 01:38:44;;;;;;;22.33;10.48;;;13.30;86.50;;;;;;5104209;28;20443;-78
2021/10/29 01:41:11;;;;;;;19.23;10.50;;;13.20;86.70;;;;;;5107967;28;20059;-78
2021/10/29 01:43:44;;;;;;;18.02;8.40;;;13.20;86.60;;;;;;5100607;28;20032;-79
2021/10/29 01:46:11;;;;;;;19.85;10.77;;;13.30;86.70;;;;;;5101436;28;20036;-78
2021/10/29 01:48:45;;;;;;;21.80;10.82;;;13.30;86.60;;;;;;5106737;28;20030;-79
2021/10/29 01:51:11;;;;;;;22.00;10.57;;;13.20;86.50;;;;;;5099042;28;20117;-78
2021/10/29 01:53:37;;;;;;;16.30;8.00;;;13.20;86.50;;;;;;5110532;28;20019;-79
2021/10/29 01:56:03;;;;;;;24.30;11.98;;;13.20;86.70;;;;;;5110795;28;20501;-79
2021/10/29 01:58:29;;;;;;;20.60;10.55;;;13.20;86.70;;;;;;5097421;28;20023;-79
2021/10/29 02:00:55;;;;;;;18.23;9.90;;;13.20;86.80;;;;;;5108727;28;20035;-78
2021/10/29 02:03:23;;;;;;;15.27;10.13;;;13.20;86.90;;;;;;5106076;28;20020;-78
2021/10/29 02:05:48;;;;;;;17.45;8.70;;;13.20;86.90;;;;;;5097719;28;20047;-79
2021/10/29 02:08:14;;;;;;;22.40;10.85;;;13.20;87.00;;;;;;5111555;28;20032;-78
2021/10/29 02:10:41;;;;;;;20.50;9.68;;;13.10;87.00;;;;;;5096876;28;20028;-79
2021/10/29 02:13:07;;;;;;;15.30;7.72;;;13.10;87.00;;;;;;5104443;28;20032;-78
2021/10/29 02:15:32;;;;;;;20.75;11.68;;;13.10;87.30;;;;;;5091293;28;20383;-78
2021/10/29 02:18:01;;;;;;;23.27;10.73;;;13.10;87.40;;;;;;5092897;28;20080;-78
2021/10/29 02:20:26;;;;;;;13.25;7.60;;;13.10;87.50;;;;;;5111265;28;20067;-78
2021/10/29 02:22:52;;;;;;;21.67;10.77;;;13.00;87.40;;;;;;5104617;28;20081;-79
2021/10/29 02:25:18;;;;;;;16.50;10.02;;;13.00;87.40;;;;;;5092624;28;20123;-78
2021/10/29 02:27:44;;;;;;;19.77;9.77;;;13.10;87.50;;;;;;5092486;28;20027;-79
2021/10/29 02:30:10;;;;;;;20.48;9.38;;;13.00;87.60;;;;;;5098555;28;20027;-78
2021/10/29 02:32:36;;;;;;;20.90;11.43;;;13.10;87.70;;;;;;5098006;28;20028;-78
2021/10/29 02:35:01;;;;;;;13.48;6.28;;;13.00;87.60;;;;;;5098829;28;20039;-77
2021/10/29 02:37:27;;;;;;;25.00;11.63;;;13.10;87.70;;;;;;5095248;28;20031;-78
2021/10/29 02:39:53;;;;;;;19.88;9.85;;;13.00;87.70;;;;;;5093810;28;20036;-78
2021/10/29 02:42:19;;;;;;;19.75;9.52;;;13.00;87.80;;;;;;5107736;28;20062;-78
2021/10/29 02:44:47;;;;;;;18.75;8.10;;;13.00;87.80;;;;;;5094986;28;20775;-78
2021/10/29 02:47:13;;;;;;;20.40;9.93;;;13.00;88.00;;;;;;5096837;28;20039;-78
2021/10/29 02:49:39;;;;;;;19.58;10.55;;;13.00;88.00;;;;;;5097623;28;20374;-78
2021/10/29 02:52:08;;;;;;;21.25;9.93;;;13.00;88.00;;;;;;5098240;28;20122;-78
2021/10/29 02:54:33;;;;;;;19.63;10.80;;;13.00;88.10;;;;;;5104460;28;20031;-78
2021/10/29 02:56:59;;;;;;;19.52;10.05;;;12.90;87.90;;;;;;5095134;28;20117;-78
2021/10/29 02:59:25;;;;;;;16.63;9.77;;;13.00;88.00;;;;;;5094185;28;20167;-78
2021/10/29 03:01:50;;;;;;;19.85;10.55;;;12.90;87.90;;;;;;5103944;28;20256;-78
2021/10/29 03:04:16;;;;;;;19.98;12.23;;;12.90;87.90;;;;;;5104780;28;20080;-78
2021/10/29 03:06:42;;;;;;;18.95;10.82;;;12.90;87.80;;;;;;5103801;28;20501;-84
2021/10/29 03:09:08;;;;;;;17.27;8.93;;;12.80;87.70;;;;;;5106049;28;20031;-79
2021/10/29 03:11:33;;;;;;;15.95;8.10;;;12.90;87.90;;;;;;5095432;28;20114;-78
2021/10/29 03:13:59;;;;;;;23.58;10.35;;;12.80;87.80;;;;;;5098311;27;20106;-77
2021/10/29 03:16:25;;;;;;;20.13;11.57;;;12.80;87.90;;;;;;5097052;28;20043;-78
2021/10/29 03:18:50;;;;;;;18.38;8.73;;;12.80;87.80;;;;;;5098166;28;20036;-78
2021/10/29 03:21:16;;;;;;;20.35;10.82;;;12.80;87.90;;;;;;5098732;28;20032;-78
2021/10/29 03:23:43;;;;;;;25.15;11.65;;;12.80;87.90;;;;;;5099083;28;20036;-78
2021/10/29 03:26:10;;;;;;;19.55;9.88;;;12.80;87.80;;;;;;5109246;28;20401;-77
2021/10/29 03:28:35;;;;;;;19.63;11.02;;;12.80;87.80;;;;;;5108000;28;20038;-78
2021/10/29 03:31:02;;;;;;;20.30;9.70;;;12.80;87.80;;;;;;5099749;27;20023;-79
2021/10/29 03:33:34;;;;;;;19.23;9.77;;;12.80;87.90;;;;;;5095673;28;20032;-79
2021/10/29 03:36:00;;;;;;;17.13;9.43;;;12.80;87.90;;;;;;5096982;28;20040;-77
2021/10/29 03:40:57;;;;;;;16.33;8.20;;;12.80;88.10;;;;;;5094189;28;20024;-78
2021/10/29 03:43:32;;;;;;;20.10;8.02;;;12.80;88.10;;;;;;5099430;28;20073;-79
2021/10/29 03:46:08;;;;;;;17.50;9.10;;;12.80;88.10;;;;;;5093744;28;20039;-78
2021/10/29 03:51:23;;;;;;;15.63;8.63;;;12.70;88.10;;;;;;5094850;28;20067;-77
2021/10/29 03:54:26;;;;;;;21.17;9.50;;;12.70;88.10;;;;;;5095874;28;20028;-77
2021/10/29 03:56:42;;;;;;;18.05;7.85;;;12.70;88.10;;;;;;5096305;28;20119;-77
2021/10/29 03:59:12;;;;;;;23.80;10.48;;;12.60;88.20;;;;;;5098189;28;20032;-75
2021/10/29 04:01:39;;;;;;;18.95;9.82;;;12.60;88.10;;;;;;5111362;28;20110;-74
2021/10/29 04:04:04;;;;;;;21.33;8.77;;;12.70;88.10;;;;;;5096713;28;20040;-77
2021/10/29 04:06:30;;;;;;;17.42;8.98;;;12.70;88.10;;;;;;5094359;28;20028;-77
2021/10/29 04:08:56;;;;;;;15.75;8.15;;;12.60;88.00;;;;;;5103928;28;20038;-77
2021/10/29 04:11:25;;;;;;;19.48;7.85;;;12.60;88.20;;;;;;5111877;28;20035;-77
2021/10/29 04:13:51;;;;;;;18.70;9.02;;;12.60;88.20;;;;;;5099089;28;20491;-77
2021/10/29 04:16:17;;;;;;;15.55;7.95;;;12.60;88.20;;;;;;5095002;28;20024;-77
2021/10/29 04:18:43;;;;;;;20.85;8.02;;;12.60;88.30;;;;;;5105303;28;20036;-77
2021/10/29 04:21:09;;;;;;;18.98;9.32;;;12.50;88.30;;;;;;5099019;28;20093;-77
2021/10/29 04:23:35;;;;;;;22.25;9.13;;;12.50;88.30;;;;;;5097256;27;20093;-77
2021/10/29 04:26:00;;;;;;;17.60;9.90;;;12.50;88.10;;;;;;5101798;27;20043;-77
2021/10/29 04:28:26;;;;;;;22.20;9.52;;;12.50;88.10;;;;;;5098621;28;20024;-77
2021/10/29 04:30:54;;;;;;;19.38;9.68;;;12.50;88.10;;;;;;5111603;28;20027;-75
2021/10/29 04:33:20;;;;;;;16.65;8.98;;;12.50;88.10;;;;;;5105710;27;20043;-80
2021/10/29 04:35:53;;;;;;;17.48;8.95;;;12.50;88.10;;;;;;5107889;28;20097;-77
2021/10/29 04:38:20;;;;;;;8.63;4.60;;;12.50;88.10;;;;;;5103191;27;20046;-79
2021/10/29 04:40:46;;;;;;;14.95;6.25;;;12.50;88.30;;;;;;5094319;28;20035;-78
2021/10/29 04:43:12;;;;;;;20.52;9.95;;;12.50;88.20;;;;;;5099739;28;20395;-78
2021/10/29 04:45:38;;;;;;;16.63;7.93;;;12.50;88.20;;;;;;5096005;28;20459;-79
2021/10/29 04:48:04;;;;;;;14.98;8.07;;;12.50;88.30;;;;;;5098339;28;20084;-80
2021/10/29 04:50:31;;;;;;;15.77;8.20;;;12.50;88.10;;;;;;5097548;28;20051;-79
2021/10/29 04:52:57;;;;;;;7.43;4.18;;;12.50;88.30;;;;;;5097055;28;20035;-80
2021/10/29 04:55:23;;;;;;;16.88;6.70;;;12.50;88.30;;;;;;5098044;28;20528;-79
2021/10/29 04:57:51;;;;;;;8.27;3.95;;;12.50;88.40;;;;;;5095102;28;20021;-79
2021/10/29 05:00:18;;;;;;;17.33;9.02;;;12.50;88.50;;;;;;5106139;28;20032;-79
2021/10/29 05:02:44;;;;;;;20.13;8.30;;;12.50;88.40;;;;;;5100577;28;20032;-81
2021/10/29 05:05:13;;;;;;;13.70;6.47;;;12.40;88.40;;;;;;5110541;28;20050;-80
2021/10/29 05:07:39;;;;;;;17.75;7.95;;;12.50;88.70;;;;;;5100041;28;20087;-80
2021/10/29 05:10:05;;;;;;;15.52;9.10;;;12.40;88.60;;;;;;5094058;28;20066;-78
2021/10/29 05:12:31;;;;;;;14.90;7.85;;;12.40;88.60;;;;;;5101320;28;20031;-78
2021/10/29 05:14:57;;;;;;;19.42;9.77;;;12.40;88.60;;;;;;5094856;27;20020;-76
2021/10/29 05:17:23;;;;;;;11.07;5.15;;;12.40;88.60;;;;;;5101123;28;20491;-77
2021/10/29 05:19:48;;;;;;;15.10;7.82;;;12.40;88.60;;;;;;5098794;28;20032;-79
2021/10/29 05:22:14;;;;;;;11.32;5.97;;;12.40;88.50;;;;;;5093384;28;20040;-79
2021/10/29 05:24:43;;;;;;;12.20;6.78;;;12.40;88.40;;;;;;5094568;27;20039;-77
2021/10/29 05:27:08;;;;;;;15.18;7.90;;;12.40;88.30;;;;;;5094006;28;20038;-78
2021/10/29 05:29:34;;;;;;;22.35;8.52;;;12.40;88.30;;;;;;5094674;28;20032;-77
2021/10/29 05:32:03;;;;;;;15.13;7.57;;;12.30;88.10;;;;;;5090900;28;20067;-76
2021/10/29 05:34:29;;;;;;;10.98;5.90;;;12.30;88.00;;;;;;5091805;28;20553;-79
2021/10/29 05:36:55;;;;;;;19.08;8.38;;;12.30;88.00;;;;;;5096714;28;20031;-79
2021/10/29 05:39:24;;;;;;;9.90;5.20;;;12.30;87.90;;;;;;5094336;28;20047;-78
2021/10/29 05:41:50;;;;;;;16.20;8.13;;;12.30;87.80;;;;;;5091560;28;20024;-76
2021/10/29 05:44:17;;;;;;;18.05;8.40;;;12.30;87.80;;;;;;5092195;28;20109;-80
2021/10/29 05:46:43;;;;;;;16.00;8.80;;;12.30;87.80;;;;;;5105471;28;20066;-79
2021/10/29 05:49:11;;;;;;;18.98;9.82;;;12.30;87.80;;;;;;5091893;28;20064;-79
2021/10/29 05:51:43;;;;;;;13.85;7.35;;;12.30;87.70;;;;;;5094508;28;20112;-78
2021/10/29 05:54:12;;;;;;;11.02;5.80;;;12.30;87.70;;;;;;5098722;28;20059;-79
2021/10/29 05:56:38;;;;;;;20.63;7.15;;;12.30;87.70;;;;;;5105268;28;20039;-79
2021/10/29 05:59:05;;;;;;;26.80;8.35;;;12.30;87.60;;;;;;5093982;28;20032;-79
2021/10/29 06:01:32;;;;;;;14.50;8.88;;;12.20;87.70;;;;;;5094699;28;20039;-79
2021/10/29 06:03:57;;;;;;;18.10;8.70;;;12.30;87.80;;;;;;5104143;28;20073;-78
2021/10/29 06:06:23;;;;;;;17.00;9.15;;;12.20;87.70;;;;;;5105887;28;20036;-78
2021/10/29 06:08:49;;;;;;;18.42;9.25;;;12.30;87.80;;;;;;5094401;28;20107;-79
2021/10/29 06:11:15;;;;;;;13.32;6.80;;;12.20;87.70;;;;;;5092469;28;20074;-78
2021/10/29 06:13:42;;;;;;;17.65;9.13;;;12.30;87.80;;;;;;5091673;28;20024;-79
2021/10/29 06:16:09;;;;;;;15.43;7.43;;;12.30;87.80;;;;;;5100707;28;20032;-80
2021/10/29 06:18:35;;;;;;;13.60;7.28;;;12.20;88.00;;;;;;5096241;28;20036;-79
2021/10/29 06:21:00;;;;;;;14.40;6.60;;;12.20;88.00;;;;;;5097455;28;20058;-79
2021/10/29 06:23:36;;;;;;;17.38;7.90;;;12.20;88.10;;;;;;5110533;28;20024;-79
2021/10/29 06:26:09;;;;;;;14.07;7.55;;;12.20;88.10;;;;;;5104771;28;20044;-75
2021/10/29 06:28:35;;;;;;;13.95;7.22;;;12.20;88.10;;;;;;5091308;28;20051;-71
2021/10/29 06:31:01;;;;;;;15.48;8.48;;;12.20;88.50;;;;;;5099925;28;20032;-77
2021/10/29 06:33:26;;;;;;;14.68;7.90;;;12.20;87.80;;;;;;5104977;28;20055;-77
2021/10/29 06:35:54;;;;;;;14.43;7.57;;;12.20;87.90;;;;;;5090911;28;20467;-76
2021/10/29 06:38:19;;;;;;;14.40;8.52;;;12.20;87.80;;;;;;5092001;28;20028;-76
2021/10/29 06:40:47;;;;;;;11.98;6.40;;;12.10;87.80;;;;;;5091180;28;20437;-77
2021/10/29 06:59:42;;;;;;;15.55;6.63;;;12.10;87.60;;;;;;5108566;28;20036;-76
2021/10/29 07:40:18;;;;;;;17.60;7.55;;;12.20;88.00;;;;;;5097318;28;20031;-76
2021/10/29 07:45:16;;;;;;;17.60;7.45;;;12.20;88.20;;;;;;5094683;28;20056;-76
2021/10/29 07:47:42;;;;;;;13.27;7.55;;;12.20;88.30;;;;;;5094308;28;20063;-76
2021/10/29 07:50:11;;;;;;;18.38;8.30;;;12.20;88.30;;;;;;5108575;28;20056;-77
2021/10/29 07:52:38;;;;;;;12.52;7.18;;;12.30;88.40;;;;;;5098344;28;20112;-77
2021/10/29 07:55:09;;;;;;;14.27;7.32;;;12.20;88.40;;;;;;5095459;28;20028;-77
2021/10/29 07:57:35;;;;;;;13.88;7.65;;;12.30;88.40;;;;;;5100335;28;20089;-76
2021/10/29 08:00:03;;;;;;;14.75;7.25;;;12.30;88.30;;;;;;5100900;28;20099;-76
2021/10/29 08:02:31;;;;;;;14.60;7.72;;;12.30;88.50;;;;;;5097979;28;20035;-76
2021/10/29 08:04:56;;;;;;;20.60;8.23;;;12.30;88.60;;;;;;5099703;28;20047;-70
2021/10/29 08:07:23;;;;;;;8.38;4.63;;;12.30;88.80;;;;;;5093748;28;20024;-69
2021/10/29 08:09:49;;;;;;;11.10;5.13;;;12.30;88.60;;;;;;5094585;28;20036;-69
2021/10/29 08:12:19;;;;;;;12.07;6.90;;;12.30;88.40;;;;;;5101224;28;20036;-70
2021/10/29 08:14:46;;;;;;;11.63;5.97;;;12.40;88.40;;;;;;5102797;28;20036;-69
2021/10/29 08:17:14;;;;;;;10.77;5.05;;;12.40;88.50;;;;;;5100732;28;20081;-74
2021/10/29 08:19:40;;;;;;;13.63;7.55;;;12.40;88.40;;;;;;5097251;28;20081;-76
2021/10/29 08:22:06;;;;;;;10.60;5.60;;;12.40;88.60;;;;;;5095574;28;20027;-71
2021/10/29 08:24:33;;;;;;;14.40;5.68;;;12.40;88.50;;;;;;5094303;28;20108;-73
2021/10/29 08:27:03;;;;;;;10.82;4.68;;;12.50;88.40;;;;;;5102908;28;20036;-78
2021/10/29 08:29:28;;;;;;;8.20;4.32;;;12.50;88.00;;;;;;5098857;28;20043;-78
2021/10/29 08:31:55;;;;;;;13.80;5.88;;;12.40;87.70;;;;;;5112616;28;20028;-77
2021/10/29 08:34:24;;;;;;;14.18;6.20;;;12.40;87.80;;;;;;5099770;28;20077;-78
2021/10/29 08:36:55;;;;;;;18.23;7.80;;;12.50;88.00;;;;;;5106124;28;20031;-78
2021/10/29 08:39:20;;;;;;;14.80;7.15;;;12.50;88.30;;;;;;5095438;28;20028;-78
2021/10/29 08:41:46;;;;;;;10.75;4.28;;;12.60;88.40;;;;;;5093780;28;20035;-78
2021/10/29 08:44:14;;;;;;;5.57;3.10;;;12.60;88.00;;;;;;5096910;28;20076;-78
2021/10/29 08:46:40;;;;;;;7.55;4.20;;;12.60;87.80;;;;;;5101569;28;20099;-78
2021/10/29 08:49:08;;;;;;;14.02;6.93;;;12.60;87.60;;;;;;5106664;28;20370;-80
2021/10/29 08:51:35;;;;;;;6.25;3.28;;;12.60;87.90;;;;;;5100884;28;20028;-80
2021/10/29 08:54:05;;;;;;;11.13;5.40;;;12.60;87.60;;;;;;5103605;28;20028;-79
2021/10/29 08:56:32;;;;;;;14.15;6.50;;;12.70;87.80;;;;;;5104040;28;20038;-79
2021/10/29 08:59:20;;;;;;;11.90;6.82;;;12.70;88.10;;;;;;5096131;28;20067;-79
2021/10/29 09:02:04;;;;;;;11.05;5.90;;;12.70;88.40;;;;;;5105074;28;20462;-79
2021/10/29 09:04:44;;;;;;;8.50;5.03;;;12.80;88.10;;;;;;5111124;28;20020;-80
2021/10/29 09:10:05;;;;;;;10.10;5.18;;;12.80;88.40;;;;;;5096846;28;20019;-83
2021/10/29 09:32:23;;;;;;;7.07;2.92;;;13.10;87.90;;;;;;5094086;28;20132;-80
2021/10/29 09:35:00;;;;;;;10.52;5.60;;;13.10;87.70;;;;;;5101257;28;20031;-79
2021/10/29 09:37:35;;;;;;;10.75;5.07;;;13.20;88.40;;;;;;5094002;28;20528;-80
2021/10/29 09:40:18;;;;;;;7.35;4.63;;;13.30;88.00;;;;;;5096156;28;20032;-79
2021/10/29 09:42:43;;;;;;;15.63;4.47;;;13.20;88.00;;;;;;5098914;28;20120;-80
2021/10/29 09:45:27;;;;;;;12.07;5.45;;;13.30;88.00;;;;;;5092096;28;20135;-79
2021/10/29 09:48:10;;;;;;;7.47;4.25;;;13.30;88.00;;;;;;5097695;28;20024;-80
2021/10/29 09:50:46;;;;;;;13.40;6.38;;;13.30;88.00;;;;;;5096536;28;20028;-79
2021/10/29 09:53:23;;;;;;;15.45;5.88;;;13.40;88.20;;;;;;5097562;28;20027;-80
2021/10/29 09:56:00;;;;;;;8.68;4.35;;;13.40;88.20;;;;;;5093380;28;20029;-77
2021/10/29 09:58:25;;;;;;;6.80;3.72;;;13.40;88.80;;;;;;5097327;28;20031;-76
2021/10/29 10:00:51;;;;;;;5.50;2.88;;;13.40;88.10;;;;;;5095265;28;20475;-76
2021/10/29 10:03:23;;;;;;;12.68;6.03;;;13.40;88.20;;;;;;5093092;28;20035;-76
2021/10/29 10:05:52;;;;;;;8.25;3.67;;;13.50;88.70;;;;;;5095412;28;20132;-77
2021/10/29 10:08:20;;;;;;;1.63;1.48;;;13.50;88.80;;;;;;5094034;28;20024;-77
2021/10/29 10:10:50;;;;;;;16.70;5.40;;;13.50;88.50;;;;;;5096081;28;20077;-76
2021/10/29 10:13:17;;;;;;;8.52;4.47;;;13.60;88.80;;;;;;5092415;28;20519;-77
2021/10/29 10:15:45;;;;;;;6.05;3.53;;;13.60;88.80;;;;;;5096099;28;20032;-77
2021/10/29 10:18:11;;;;;;;8.98;5.20;;;13.60;88.60;;;;;;5099505;28;20119;-76
2021/10/29 10:20:37;;;;;;;9.98;5.13;;;13.70;89.00;;;;;;5103052;28;20153;-76
2021/10/29 10:23:06;;;;;;;14.60;4.05;;;13.80;89.00;;;;;;5108840;28;20028;-77
2021/10/29 10:28:38;;;;;;;9.27;4.28;;;13.90;89.00;;;;;;5108934;28;20059;-76
2021/10/29 10:42:19;;;;;;;10.73;5.32;;;14.10;89.40;;;;;;5108754;28;20093;-76
2021/10/29 10:45:15;;;;;;;8.48;4.18;;;14.20;88.80;;;;;;5101252;28;20051;-77
2021/10/29 10:47:47;;;;;;;9.00;5.45;;;14.20;88.70;;;;;;5101633;28;20036;-83
2021/10/29 10:50:20;;;;;;;10.60;4.00;;;14.30;88.80;;;;;;5097829;28;20127;-77
2021/10/29 10:55:58;;;;;;;9.18;4.13;;;14.30;88.80;;;;;;5102807;28;20031;-72
2021/10/29 11:01:12;;;;;;;13.90;5.32;;;14.50;88.70;;;;;;5094986;28;20028;-71
2021/10/29 11:06:52;;;;;;;8.20;4.35;;;14.50;88.30;;;;;;5094861;28;20067;-73
2021/10/29 11:09:56;;;;;;;8.18;4.75;;;14.70;88.50;;;;;;5105439;28;20475;-74
2021/10/29 11:12:24;;;;;;;8.47;5.40;;;14.70;88.60;;;;;;5109672;27;20027;-78
2021/10/29 11:15:08;;;;;;;8.60;5.20;;;14.70;88.60;;;;;;5101252;27;20273;-79
2021/10/29 11:17:52;;;;;;;10.45;5.32;;;14.80;88.80;;;;;;5108736;28;20040;-80
2021/10/29 11:20:37;;;;;;;11.18;5.18;;;14.80;88.60;;;;;;5100653;28;20032;-73
2021/10/29 11:23:21;;;;;;;9.02;4.85;;;14.90;88.70;;;;;;5099248;28;20479;-79
2021/10/29 11:26:04;;;;;;;9.65;5.15;;;14.90;88.60;;;;;;5104421;28;20437;-77
2021/10/29 11:28:37;;;;;;;12.38;6.00;;;15.00;88.80;;;;;;5094685;28;20032;-75
2021/10/29 11:31:05;;;;;;;11.50;4.47;;;15.00;88.60;;;;;;5098115;28;20036;-75
2021/10/29 11:33:32;;;;;;;4.72;2.85;;;15.10;88.20;;;;;;5095243;28;20028;-75
2021/10/29 11:36:08;;;;;;;8.15;4.63;;;15.20;88.10;;;;;;5099878;28;20035;-75
2021/10/29 11:38:36;;;;;;;11.55;6.22;;;15.20;88.10;;;;;;5104856;28;20027;-75
2021/10/29 11:41:08;;;;;;;5.68;3.45;;;15.20;88.20;;;;;;5098841;27;20382;-75
2021/10/29 11:43:35;;;;;;;11.45;5.45;;;15.20;88.00;;;;;;5097193;28;20028;-75
2021/10/29 11:46:06;;;;;;;14.50;5.72;;;15.30;88.20;;;;;;5105291;28;20035;-75
2021/10/29 11:48:43;;;;;;;14.02;5.85;;;15.30;88.10;;;;;;5096787;28;20398;-78
2021/10/29 11:51:12;;;;;;;10.82;6.57;;;15.40;88.20;;;;;;5094060;27;20535;-78
2021/10/29 11:53:49;;;;;;;8.10;4.75;;;15.40;88.20;;;;;;5094222;27;20024;-74
2021/10/29 11:56:31;;;;;;;35.30;7.55;;;15.50;88.00;;;;;;5094314;27;20072;-74
2021/10/29 12:01:54;;;;;;;12.32;4.15;;;15.50;87.70;;;;;;5095502;27;20050;-70
2021/10/29 12:09:50;;;;;;;18.42;5.97;;;15.60;88.00;;;;;;5096386;28;20498;-79
2021/10/29 12:12:28;;;;;;;11.40;4.75;;;15.60;88.00;;;;;;5097839;27;20046;-79
2021/10/29 12:14:55;;;;;;;15.40;4.95;;;15.60;88.00;;;;;;5094877;27;20024;-72
2021/10/29 12:17:33;;;;;;;12.77;5.57;;;15.70;87.90;;;;;;5104254;28;20119;-77
2021/10/29 12:20:02;;;;;;;7.35;3.95;;;15.70;87.90;;;;;;5093618;28;20035;-77
2021/10/29 12:25:08;;;;;;;7.45;4.22;;;15.80;88.10;;;;;;5100249;28;20039;-77
2021/10/29 12:27:41;;;;;;;8.48;4.15;;;15.80;88.30;;;;;;5111830;27;20530;-77
2021/10/29 12:30:19;;;;;;;6.43;2.63;;;15.90;88.50;;;;;;5104669;28;20028;-70
2021/10/29 12:38:51;;;;;;;8.43;5.20;;;16.00;88.50;;;;;;5097191;28;20032;-74
2021/10/29 13:03:24;;;;;;;12.10;5.97;;;16.30;87.60;;;;;;5095100;28;20043;-75
2021/10/29 13:05:53;;;;;;;12.05;5.20;;;16.40;87.30;;;;;;5092775;28;20055;-75
2021/10/29 13:08:21;;;;;;;9.23;5.53;;;16.40;87.40;;;;;;5091189;28;20027;-75
2021/10/29 13:10:51;;;;;;;5.50;3.75;;;16.40;87.70;;;;;;5093702;27;20036;-75
2021/10/29 13:15:48;;;;;;;6.15;4.32;;;16.40;87.50;;;;;;5091813;27;20119;-74
2021/10/29 13:18:20;;;;;;;9.18;4.90;;;16.50;87.60;;;;;;5092232;27;20085;-74
2021/10/29 13:23:47;;;;;;;10.52;5.28;;;16.60;87.40;;;;;;5091574;28;20024;-75
2021/10/29 13:34:13;;;;;;;7.57;4.60;;;16.60;86.90;;;;;;5066927;28;20043;-74
2021/10/29 13:53:49;;;;;;;10.65;5.13;;;16.90;87.00;;;;;;5092073;28;20031;-79
2021/10/29 14:29:42;;;;;;;9.00;5.18;;;16.90;86.80;;;;;;5097760;28;20028;-77
2021/10/29 14:34:51;;;;;;;18.25;7.43;;;16.90;86.50;;;;;;5103091;28;20019;-77
2021/10/29 14:37:41;;;;;;;7.75;4.68;;;17.00;87.10;;;;;;5100033;28;20122;-77
2021/10/29 14:40:15;;;;;;;5.32;2.83;;;17.00;86.80;;;;;;5098344;28;20027;-77
2021/10/29 14:42:51;;;;;;;9.27;4.03;;;17.10;88.60;;;;;;5096830;28;20035;-77
2021/10/29 14:45:23;;;;;;;6.32;3.08;;;17.10;88.30;;;;;;5105167;28;20410;-76
2021/10/29 14:48:02;;;;;;;7.68;4.28;;;17.10;88.40;;;;;;5094956;28;20040;-76
2021/10/29 15:15:19;;;;;;;6.35;3.33;;;17.30;85.20;;;;;;5102798;28;20388;-76
2021/10/29 15:28:30;;;;;;;6.60;3.95;;;17.40;86.00;;;;;;5094428;28;20031;-74
2021/10/29 15:41:05;;;;;;;5.93;3.20;;;17.40;86.00;;;;;;5098347;27;20031;-75
2021/10/29 15:42:18;;;;;;;8.18;3.50;;;17.40;85.90;;;;;;5096779;27;20616;-76
2021/10/29 15:44:46;;;;;;;;;;;17.40;86.40;;;;;;5096210;27;20046;-76
2021/10/29 15:47:21;;;;;;;8.32;4.03;;;17.50;87.20;;;;;;5096446;28;19908;-76
2021/10/29 15:49:48;;;;;;;11.38;4.57;;;17.50;87.00;;;;;;5097276;27;20420;-80
2021/10/29 15:52:15;;;;;;;9.27;4.07;;;17.50;86.40;;;;;;5096363;28;20066;-80
2021/10/29 15:54:49;;;;;;;7.22;3.80;;;17.40;85.90;;;;;;5096361;28;20063;-79
2021/10/29 15:57:24;;;;;;;;;;;17.40;85.60;;;;;;5099674;27;20107;-76
2021/10/29 16:00:10;;;;;;;6.10;4.22;;;17.50;86.40;;;;;;5094943;28;19908;-77
2021/10/29 16:02:58;;;;;;;15.05;4.55;;;17.40;85.70;;;;;;5097147;28;20028;-77
2021/10/29 16:19:06;;;;;;;11.02;3.88;;;17.30;84.80;;;;;;5106262;28;20046;-83
2021/10/29 16:21:32;;;;;;;9.55;4.82;;;17.30;84.60;;;;;;5108876;28;20028;-81
2021/10/29 16:23:57;;;;;;;10.70;4.60;;;17.30;84.40;;;;;;5098960;28;20032;-80
2021/10/29 16:26:24;;;;;;;12.57;4.65;;;17.20;84.40;;;;;;5095803;28;20081;-84
2021/10/29 16:28:51;;;;;;;14.25;4.38;;;17.20;84.50;;;;;;5100627;28;20085;-80
2021/10/29 16:31:20;;;;;;;7.68;4.28;;;17.10;84.10;;;;;;5103099;28;20039;-79
2021/10/29 16:33:45;;;;;;;9.80;4.32;;;17.20;84.50;;;;;;5113280;28;20375;-81
2021/10/29 16:36:13;;;;;;;6.82;3.80;;;17.20;84.20;;;;;;5108871;28;20038;-80
2021/10/29 16:38:39;;;;;;;14.85;4.53;;;17.10;84.30;;;;;;5103403;28;20100;-80
2021/10/29 16:41:04;;;;;;;15.63;4.70;;;17.10;84.20;;;;;;5101701;28;20051;-85
2021/10/29 16:43:35;;;;;;;11.98;4.40;;;17.10;84.30;;;;;;5097207;28;20031;-83
2021/10/29 16:46:01;;;;;;;8.98;4.55;;;17.10;84.10;;;;;;5095078;28;20557;-82
2021/10/29 16:48:26;;;;;;;11.27;4.88;;;17.00;83.70;;;;;;5107832;28;20051;-82
2021/10/29 16:50:52;;;;;;;8.43;4.50;;;17.00;84.10;;;;;;5106213;28;20031;-81
2021/10/29 16:53:19;;;;;;;12.05;4.60;;;17.00;84.10;;;;;;5110485;28;20035;-81
2021/10/29 16:55:45;;;;;;;10.27;5.05;;;17.00;84.10;;;;;;5103582;27;20031;-81
2021/10/29 16:58:11;;;;;;;12.82;4.57;;;17.00;84.20;;;;;;5096100;28;20540;-79
2021/10/29 17:00:38;;;;;;;7.10;4.60;;;17.00;84.00;;;;;;5095417;28;20475;-82
2021/10/29 17:03:03;;;;;;;7.75;4.35;;;16.90;83.90;;;;;;5096059;28;20468;-82
2021/10/29 17:05:29;;;;;;;9.57;5.00;;;16.90;84.40;;;;;;5101598;27;20063;-83
2021/10/29 17:07:55;;;;;;;8.43;4.82;;;16.90;84.40;;;;;;5111563;28;20476;-84
2021/10/29 17:10:21;;;;;;;11.32;4.65;;;16.90;84.50;;;;;;5098248;28;20012;-84
2021/10/29 17:12:50;;;;;;;7.60;4.10;;;16.90;84.30;;;;;;5103516;28;20046;-84
2021/10/29 17:15:18;;;;;;;8.23;4.53;;;16.80;84.00;;;;;;5105958;28;20509;-82
2021/10/29 17:17:45;;;;;;;8.57;4.05;;;16.90;83.80;;;;;;5098704;28;20024;-82